Terminal Aerodrome Forecast
Issued by NWS

Home | Current Version | Previous Version | Graphics & Text | Print | Product List | Glossary On
Versions: 1 2 3 4 5 6 7 8 9 10 11 12
000
FTUS43 KICT 181720
TAFRSL
TAF
KRSL 181720Z 1818/1918 19020G30KT P6SM FEW070
     FM190100 16013KT P6SM FEW070 SCT150
     FM191600 20016G23KT P6SM SCT200=

USA.gov is the U.S. government's official web portal to all federal, state and local government web resources and services.